Time;durP1;ratioP1;P1;durP2;ratioP2;P2;SDS_P1;SDS_P2;PMS_P1;PMS_P2;Temp;Humidity;BMP_temperature;BMP_pressure;BME280_temperature;BME280_humidity;BME280_pressure;Samples;Min_cycle;Max_cycle;Signal;HPM_P1;HPM_P2
2023/09/28 00:01:31;;;;;;;4.53;3.80;;;13.80;99.90;;;;;;467127;253;28564;-73
2023/09/28 00:03:33;;;;;;;5.03;3.63;;;13.90;99.90;;;;;;467163;253;28181;-70
2023/09/28 00:05:34;;;;;;;3.43;3.17;;;14.10;99.90;;;;;;467148;253;28679;-70
2023/09/28 00:07:35;;;;;;;5.90;3.80;;;14.20;99.90;;;;;;467142;254;28746;-70
2023/09/28 00:09:36;;;;;;;3.10;2.90;;;14.30;99.90;;;;;;467107;253;28660;-71
2023/09/28 00:11:38;;;;;;;3.23;2.80;;;14.50;99.90;;;;;;467148;253;28678;-71
2023/09/28 00:13:39;;;;;;;3.20;2.90;;;14.60;99.90;;;;;;467149;254;28266;-70
2023/09/28 00:15:40;;;;;;;3.10;2.90;;;14.50;99.90;;;;;;467129;253;28337;-70
2023/09/28 00:17:41;;;;;;;3.33;3.10;;;14.30;99.90;;;;;;467107;253;28278;-70
2023/09/28 00:19:43;;;;;;;2.90;2.70;;;14.20;99.90;;;;;;467135;254;28267;-71
2023/09/28 00:21:44;;;;;;;3.77;3.47;;;14.20;99.90;;;;;;467134;249;28424;-73
2023/09/28 00:23:45;;;;;;;3.20;2.90;;;14.10;99.90;;;;;;467114;253;28435;-70
2023/09/28 00:25:46;;;;;;;4.47;3.60;;;14.10;99.90;;;;;;467122;253;28369;-70
2023/09/28 00:27:48;;;;;;;3.67;3.37;;;14.20;99.90;;;;;;467138;250;28407;-71
2023/09/28 00:29:50;;;;;;;3.97;3.63;;;14.30;99.90;;;;;;467170;250;28775;-70
2023/09/28 00:31:50;;;;;;;3.73;3.33;;;14.50;99.90;;;;;;467126;254;28672;-71
2023/09/28 00:33:51;;;;;;;3.67;3.37;;;14.50;99.90;;;;;;467146;254;28785;-70
2023/09/28 00:35:53;;;;;;;2.87;2.67;;;14.50;99.90;;;;;;467132;253;28902;-70
2023/09/28 00:37:54;;;;;;;3.90;3.47;;;14.40;99.90;;;;;;467171;254;28221;-73
2023/09/28 00:39:55;;;;;;;3.83;3.53;;;14.20;99.90;;;;;;467169;253;28464;-70
2023/09/28 00:41:56;;;;;;;3.77;3.47;;;14.20;99.90;;;;;;467162;253;28338;-71
2023/09/28 00:43:59;;;;;;;4.07;3.67;;;14.30;99.90;;;;;;467139;253;28411;-70
2023/09/28 00:45:59;;;;;;;3.70;3.40;;;14.40;99.90;;;;;;467115;254;28381;-70
2023/09/28 00:48:00;;;;;;;4.53;3.37;;;14.50;99.90;;;;;;467165;253;28384;-70
2023/09/28 00:50:03;;;;;;;5.20;4.03;;;14.50;99.90;;;;;;467146;254;28174;-70
2023/09/28 00:52:03;;;;;;;4.83;4.33;;;14.70;99.90;;;;;;467038;253;28533;-70
2023/09/28 00:54:05;;;;;;;4.27;3.63;;;15.00;99.90;;;;;;467132;249;29135;-71
2023/09/28 00:56:07;;;;;;;4.10;3.80;;;15.00;99.90;;;;;;466924;254;28956;-71
2023/09/28 00:58:07;;;;;;;5.10;3.67;;;15.10;99.90;;;;;;467031;254;29150;-71
2023/09/28 01:02:21;;;;;;;3.67;3.37;;;14.80;99.90;;;;;;452753;261;29035;-70
2023/09/28 01:04:22;;;;;;;3.67;3.37;;;14.70;99.90;;;;;;452807;262;29117;-70
2023/09/28 01:06:24;;;;;;;3.93;3.57;;;14.60;99.90;;;;;;452814;262;28693;-70
2023/09/28 01:08:24;;;;;;;3.30;3.00;;;14.50;99.90;;;;;;452720;262;29042;-70
2023/09/28 01:10:29;;;;;;;3.17;2.97;;;14.20;99.90;;;;;;452787;258;28539;-70
2023/09/28 01:12:27;;;;;;;3.00;2.80;;;14.00;99.90;;;;;;452590;262;28588;-70
2023/09/28 01:14:29;;;;;;;4.13;3.83;;;13.90;99.90;;;;;;452813;262;29289;-72
2023/09/28 01:16:30;;;;;;;4.40;4.00;;;13.90;99.90;;;;;;452814;262;29466;-70
2023/09/28 01:18:31;;;;;;;4.13;3.60;;;14.00;99.90;;;;;;452779;262;29056;-71
2023/09/28 01:20:37;;;;;;;6.10;4.73;;;;;;;;;;452791;262;29129;-70
2023/09/28 01:22:37;;;;;;;6.00;4.90;;;14.30;99.90;;;;;;445139;267;26658;-71
2023/09/28 01:24:38;;;;;;;3.90;3.60;;;14.40;99.90;;;;;;453040;262;28634;-71
2023/09/28 01:26:39;;;;;;;4.93;4.50;;;14.40;99.90;;;;;;452675;262;29249;-71
2023/09/28 01:28:41;;;;;;;5.73;4.53;;;14.50;99.90;;;;;;452691;262;29074;-71
2023/09/28 01:30:42;;;;;;;4.63;4.10;;;14.70;99.90;;;;;;452225;263;28850;-71
2023/09/28 01:32:43;;;;;;;3.80;3.50;;;14.70;99.90;;;;;;452235;263;28589;-70
2023/09/28 01:34:44;;;;;;;4.80;3.87;;;14.90;99.90;;;;;;452229;263;28361;-73
2023/09/28 01:36:46;;;;;;;4.30;3.80;;;14.90;99.90;;;;;;452212;263;28781;-70
2023/09/28 01:38:48;;;;;;;4.33;3.77;;;14.80;99.90;;;;;;450152;259;28647;-71
2023/09/28 01:40:48;;;;;;;5.10;3.63;;;14.80;99.90;;;;;;467048;253;28537;-71
2023/09/28 01:42:49;;;;;;;3.70;3.40;;;14.80;99.90;;;;;;465648;255;28448;-71
2023/09/28 01:44:51;;;;;;;4.13;3.83;;;14.80;99.90;;;;;;459306;258;28686;-72
2023/09/28 01:46:52;;;;;;;5.20;4.70;;;14.80;99.90;;;;;;469006;253;28589;-70
2023/09/28 01:48:53;;;;;;;8.30;4.80;;;14.80;99.90;;;;;;459418;259;29002;-71
2023/09/28 01:50:54;;;;;;;4.80;4.40;;;14.80;99.90;;;;;;467006;254;29829;-71
2023/09/28 01:52:56;;;;;;;4.37;3.50;;;14.90;99.90;;;;;;465678;255;29125;-71
2023/09/28 01:54:57;;;;;;;4.27;3.70;;;14.80;99.90;;;;;;459302;258;29268;-72
2023/09/28 01:56:58;;;;;;;5.00;4.33;;;14.90;99.90;;;;;;468988;253;29162;-70
2023/09/28 01:59:00;;;;;;;5.67;4.87;;;15.00;99.90;;;;;;459406;254;29023;-70
2023/09/28 02:01:01;;;;;;;3.87;3.50;;;15.10;99.90;;;;;;467044;253;28609;-71
2023/09/28 02:03:08;;;;;;;4.13;3.83;;;15.20;99.90;;;;;;465687;255;28441;-71
2023/09/28 02:05:07;;;;;;;3.80;3.50;;;15.20;99.90;;;;;;459149;259;28710;-70
2023/09/28 02:07:07;;;;;;;3.70;3.40;;;15.10;99.90;;;;;;468927;253;29447;-71
2023/09/28 02:09:10;;;;;;;3.80;3.50;;;15.20;99.90;;;;;;459437;259;29500;-71
2023/09/28 02:11:10;;;;;;;3.70;3.40;;;15.30;99.90;;;;;;466994;253;29035;-71
2023/09/28 02:13:11;;;;;;;3.57;3.23;;;15.40;99.90;;;;;;465654;255;28882;-70
2023/09/28 02:15:15;;;;;;;4.10;3.70;;;15.30;99.90;;;;;;459324;254;29080;-71
2023/09/28 02:17:16;;;;;;;3.83;3.50;;;15.20;99.90;;;;;;468922;249;28961;-71
2023/09/28 02:19:17;;;;;;;4.17;3.77;;;15.30;99.90;;;;;;459437;259;29009;-71
2023/09/28 02:21:19;;;;;;;4.43;3.97;;;15.20;99.90;;;;;;467879;254;28832;-70
2023/09/28 02:23:22;;;;;;;6.00;4.10;;;15.10;99.90;;;;;;467127;253;28961;-71
2023/09/28 02:25:21;;;;;;;4.00;3.50;;;15.20;99.90;;;;;;467083;249;29436;-72
2023/09/28 02:27:22;;;;;;;3.93;3.63;;;15.20;99.90;;;;;;467161;253;29293;-71
2023/09/28 02:29:24;;;;;;;3.73;3.47;;;15.10;99.90;;;;;;467141;254;29351;-71
2023/09/28 02:31:25;;;;;;;4.57;3.90;;;15.00;99.90;;;;;;467017;253;28901;-71
2023/09/28 02:33:26;;;;;;;3.93;3.43;;;15.10;99.90;;;;;;467096;253;28865;-72
2023/09/28 02:35:28;;;;;;;3.63;3.33;;;15.20;99.90;;;;;;467156;253;28857;-72
2023/09/28 02:37:29;;;;;;;4.33;3.93;;;15.30;99.90;;;;;;467125;253;28925;-71
2023/09/28 02:39:30;;;;;;;3.83;3.47;;;15.30;99.90;;;;;;467174;254;28884;-71
2023/09/28 02:41:31;;;;;;;4.40;4.00;;;15.30;99.90;;;;;;467166;253;28585;-71
2023/09/28 02:43:33;;;;;;;4.03;3.63;;;15.20;99.90;;;;;;467144;254;28865;-70
2023/09/28 02:45:35;;;;;;;4.27;3.90;;;15.20;99.90;;;;;;467155;253;28861;-71
2023/09/28 02:47:35;;;;;;;4.00;3.70;;;15.30;99.90;;;;;;467105;254;28826;-70
2023/09/28 02:49:36;;;;;;;5.50;4.00;;;15.30;99.90;;;;;;467169;253;29441;-70
2023/09/28 02:51:37;;;;;;;3.73;3.33;;;15.30;99.90;;;;;;467146;253;30065;-70
2023/09/28 02:53:39;;;;;;;3.63;3.33;;;15.30;99.90;;;;;;467170;253;29292;-71
2023/09/28 02:55:40;;;;;;;3.87;3.53;;;15.40;99.90;;;;;;467183;253;29354;-71
2023/09/28 02:57:41;;;;;;;3.80;3.50;;;15.30;99.90;;;;;;467161;253;28897;-71
2023/09/28 02:59:43;;;;;;;3.60;3.07;;;15.30;99.90;;;;;;467157;253;28855;-70
2023/09/28 03:01:44;;;;;;;7.53;3.77;;;15.20;99.90;;;;;;467176;253;28867;-71
2023/09/28 03:03:45;;;;;;;3.13;2.93;;;15.10;99.90;;;;;;467129;253;28822;-70
2023/09/28 03:05:46;;;;;;;3.73;3.43;;;15.20;99.90;;;;;;467073;253;28914;-71
2023/09/28 03:07:48;;;;;;;4.77;4.03;;;15.20;99.90;;;;;;467146;253;28928;-71
2023/09/28 03:09:49;;;;;;;3.87;3.57;;;15.10;99.90;;;;;;467143;253;28618;-70
2023/09/28 03:11:50;;;;;;;3.50;3.20;;;15.20;99.90;;;;;;467172;253;28952;-72
2023/09/28 03:13:51;;;;;;;4.40;3.90;;;15.20;99.90;;;;;;467163;253;29293;-70
2023/09/28 03:15:53;;;;;;;4.30;3.90;;;15.10;99.90;;;;;;467136;253;29535;-71
2023/09/28 03:17:56;;;;;;;5.17;3.50;;;15.10;99.90;;;;;;467112;253;29280;-70
2023/09/28 03:19:55;;;;;;;4.50;3.90;;;15.00;99.90;;;;;;467043;254;29283;-71
2023/09/28 03:21:56;;;;;;;6.93;4.13;;;15.10;99.90;;;;;;467177;253;28974;-73
2023/09/28 03:23:58;;;;;;;5.37;3.87;;;15.10;99.90;;;;;;467133;253;28842;-70
2023/09/28 03:25:59;;;;;;;4.30;3.90;;;15.00;99.90;;;;;;467103;253;28861;-70
2023/09/28 03:28:00;;;;;;;4.70;4.20;;;15.00;99.90;;;;;;467125;253;28853;-70
2023/09/28 03:30:05;;;;;;;4.00;3.70;;;15.00;99.90;;;;;;467148;253;28606;-70
2023/09/28 03:32:02;;;;;;;4.57;4.10;;;15.00;99.90;;;;;;466963;254;28655;-71
2023/09/28 03:34:04;;;;;;;4.40;4.00;;;15.00;99.90;;;;;;467136;253;28580;-70
2023/09/28 03:36:05;;;;;;;4.23;3.83;;;14.90;99.90;;;;;;467119;254;28862;-71
2023/09/28 03:38:07;;;;;;;5.10;4.03;;;15.00;99.90;;;;;;467073;253;29392;-72
2023/09/28 03:40:10;;;;;;;5.60;4.00;;;15.10;99.90;;;;;;467167;253;29307;-71
2023/09/28 03:42:12;;;;;;;5.17;3.50;;;15.10;99.90;;;;;;467136;253;29293;-70
2023/09/28 03:44:13;;;;;;;4.93;4.13;;;15.10;99.90;;;;;;467110;253;29363;-71
2023/09/28 03:46:14;;;;;;;4.07;3.57;;;15.20;99.90;;;;;;467138;253;28817;-71
2023/09/28 03:48:15;;;;;;;4.37;3.97;;;15.20;99.90;;;;;;467102;253;28892;-71
2023/09/28 03:50:16;;;;;;;3.63;3.33;;;15.20;99.90;;;;;;467151;254;28978;-72
2023/09/28 03:52:18;;;;;;;3.40;3.10;;;15.20;99.90;;;;;;467148;250;28825;-71
2023/09/28 03:54:19;;;;;;;5.30;3.63;;;15.20;99.90;;;;;;467154;253;28648;-70
2023/09/28 03:56:21;;;;;;;3.40;3.10;;;15.30;99.90;;;;;;467129;253;28603;-70
2023/09/28 03:58:21;;;;;;;3.33;3.03;;;15.30;99.90;;;;;;467115;254;28939;-70
2023/09/28 04:00:23;;;;;;;5.07;3.53;;;15.40;99.90;;;;;;467161;254;28864;-71
2023/09/28 04:02:24;;;;;;;6.23;3.30;;;15.30;99.90;;;;;;467144;253;28865;-70
2023/09/28 04:04:25;;;;;;;3.77;3.37;;;15.40;99.90;;;;;;467110;253;29377;-71
2023/09/28 04:06:26;;;;;;;5.73;4.00;;;15.50;99.90;;;;;;467155;253;30185;-70
2023/09/28 04:08:28;;;;;;;6.90;3.20;;;15.50;99.90;;;;;;467175;254;29418;-70
2023/09/28 04:10:29;;;;;;;3.97;3.30;;;15.60;99.90;;;;;;467171;249;28895;-71
2023/09/28 04:12:30;;;;;;;3.00;2.80;;;15.60;99.90;;;;;;467151;254;28817;-70
2023/09/28 04:14:32;;;;;;;5.33;3.57;;;15.50;99.90;;;;;;467159;253;28955;-71
2023/09/28 04:16:33;;;;;;;4.43;3.20;;;15.60;99.90;;;;;;467161;253;28877;-70
2023/09/28 04:18:34;;;;;;;4.70;3.67;;;15.60;99.90;;;;;;467126;254;28924;-71
2023/09/28 04:20:35;;;;;;;3.20;3.00;;;15.60;99.90;;;;;;467173;253;28544;-71
2023/09/28 04:22:36;;;;;;;4.57;2.90;;;15.50;99.90;;;;;;467143;254;28873;-70
2023/09/28 04:24:38;;;;;;;5.37;3.30;;;15.50;99.90;;;;;;467142;253;28875;-70
2023/09/28 04:26:40;;;;;;;3.20;2.93;;;15.50;99.90;;;;;;467175;253;29001;-73
2023/09/28 04:28:40;;;;;;;4.17;3.20;;;15.50;99.90;;;;;;467117;253;29288;-71
2023/09/28 04:30:43;;;;;;;4.00;3.40;;;15.50;99.90;;;;;;467139;254;29444;-71
2023/09/28 04:32:43;;;;;;;3.17;2.87;;;15.50;99.90;;;;;;467045;254;29273;-72
2023/09/28 04:34:44;;;;;;;5.93;3.70;;;15.50;99.90;;;;;;467175;253;29317;-71
2023/09/28 04:36:45;;;;;;;6.53;3.53;;;15.60;99.90;;;;;;467140;249;29040;-72
2023/09/28 04:38:46;;;;;;;5.27;3.70;;;15.50;99.90;;;;;;467136;254;28864;-70
2023/09/28 04:40:48;;;;;;;4.00;3.20;;;15.50;99.90;;;;;;467129;253;28892;-70
2023/09/28 04:42:49;;;;;;;5.33;3.60;;;15.40;99.90;;;;;;467150;253;28864;-70
2023/09/28 04:44:50;;;;;;;3.50;3.20;;;15.50;99.90;;;;;;467170;254;28833;-70
2023/09/28 04:46:51;;;;;;;3.63;3.27;;;15.50;99.90;;;;;;467159;253;29000;-71
2023/09/28 04:48:53;;;;;;;6.10;3.90;;;15.60;99.90;;;;;;467151;254;28893;-71
2023/09/28 04:50:54;;;;;;;3.80;3.17;;;15.60;99.90;;;;;;467154;253;28935;-70
2023/09/28 04:52:55;;;;;;;5.77;3.43;;;15.60;99.90;;;;;;467164;249;29404;-73
2023/09/28 04:54:57;;;;;;;3.83;3.40;;;15.60;99.90;;;;;;467156;253;29485;-71
2023/09/28 04:56:58;;;;;;;5.60;3.67;;;15.50;99.90;;;;;;467142;253;29557;-71
2023/09/28 04:59:02;;;;;;;5.00;3.77;;;15.40;99.90;;;;;;467182;253;29407;-71
2023/09/28 05:01:03;;;;;;;5.43;3.10;;;15.40;99.90;;;;;;467137;253;28964;-71
2023/09/28 05:03:04;;;;;;;3.97;3.20;;;15.40;99.90;;;;;;467147;253;29397;-70
2023/09/28 05:05:06;;;;;;;4.47;3.63;;;15.40;99.90;;;;;;467124;253;29388;-72
2023/09/28 05:07:07;;;;;;;5.10;3.90;;;15.40;99.90;;;;;;467175;249;29037;-71
2023/09/28 05:09:08;;;;;;;3.77;3.30;;;15.40;99.90;;;;;;467092;253;29651;-71
2023/09/28 05:11:09;;;;;;;3.73;3.43;;;15.20;99.90;;;;;;467132;254;28916;-70
2023/09/28 05:13:10;;;;;;;4.30;3.50;;;15.10;99.90;;;;;;467152;253;28928;-70
2023/09/28 05:15:13;;;;;;;5.30;3.70;;;15.10;99.90;;;;;;467120;253;28853;-72
2023/09/28 05:17:14;;;;;;;4.60;3.53;;;15.10;99.90;;;;;;467086;253;28963;-70
2023/09/28 05:19:14;;;;;;;5.00;3.70;;;15.10;99.90;;;;;;467095;249;28889;-71
2023/09/28 05:21:15;;;;;;;3.87;3.10;;;14.90;99.90;;;;;;467166;253;28665;-70
2023/09/28 05:23:17;;;;;;;3.60;3.23;;;15.00;99.90;;;;;;467145;254;28965;-71
2023/09/28 05:25:18;;;;;;;5.60;3.80;;;15.10;99.90;;;;;;467151;253;28892;-71
2023/09/28 05:27:19;;;;;;;4.50;3.77;;;15.10;99.90;;;;;;467139;253;28891;-70
2023/09/28 05:29:20;;;;;;;7.77;3.70;;;15.10;99.90;;;;;;467136;253;29435;-70
2023/09/28 05:31:23;;;;;;;5.53;3.27;;;15.10;99.90;;;;;;467160;254;29047;-71
2023/09/28 05:33:23;;;;;;;4.20;3.80;;;15.10;99.90;;;;;;467159;254;29324;-71
2023/09/28 05:35:24;;;;;;;4.60;3.67;;;15.00;99.90;;;;;;467142;254;28930;-70
2023/09/28 05:37:25;;;;;;;6.70;3.67;;;15.00;99.90;;;;;;467153;253;28829;-71
2023/09/28 05:39:27;;;;;;;5.17;4.10;;;15.10;99.90;;;;;;467131;253;28911;-71
2023/09/28 05:41:28;;;;;;;4.00;3.60;;;15.00;99.90;;;;;;467175;253;28930;-72
2023/09/28 05:43:30;;;;;;;16.70;3.97;;;15.00;99.90;;;;;;467173;253;28616;-71
2023/09/28 05:45:32;;;;;;;6.43;3.77;;;14.90;99.90;;;;;;467175;253;28563;-70
2023/09/28 05:47:33;;;;;;;4.67;3.80;;;14.90;99.90;;;;;;467125;253;28832;-70
2023/09/28 05:49:33;;;;;;;5.47;4.00;;;14.90;99.90;;;;;;467104;254;28931;-70
2023/09/28 05:51:34;;;;;;;4.23;3.83;;;14.90;99.90;;;;;;467186;253;28638;-72
2023/09/28 05:53:36;;;;;;;6.67;3.70;;;14.80;99.90;;;;;;467174;253;29495;-71
2023/09/28 05:55:37;;;;;;;3.43;3.13;;;14.80;99.90;;;;;;467171;253;29361;-71
2023/09/28 05:57:38;;;;;;;4.07;3.67;;;14.80;99.90;;;;;;467183;253;29258;-70
2023/09/28 05:59:39;;;;;;;4.77;3.40;;;14.80;99.90;;;;;;467186;254;28913;-71
2023/09/28 06:01:41;;;;;;;4.03;3.60;;;14.90;99.90;;;;;;467163;253;28873;-71
2023/09/28 06:03:42;;;;;;;4.33;3.93;;;14.90;99.90;;;;;;467164;253;28953;-71
2023/09/28 06:05:43;;;;;;;4.97;3.50;;;14.90;99.90;;;;;;467152;253;28588;-71
2023/09/28 06:07:44;;;;;;;3.63;3.30;;;15.00;99.90;;;;;;467161;253;29258;-71
2023/09/28 06:09:46;;;;;;;6.60;3.30;;;15.00;99.90;;;;;;467165;254;28383;-71
2023/09/28 06:11:48;;;;;;;3.43;3.13;;;15.00;99.90;;;;;;467152;253;28884;-71
2023/09/28 06:13:48;;;;;;;5.70;3.97;;;14.90;99.90;;;;;;467103;254;28371;-70
2023/09/28 06:15:49;;;;;;;5.47;3.77;;;14.90;99.90;;;;;;467099;253;28432;-71
2023/09/28 06:17:51;;;;;;;4.70;3.70;;;14.90;99.90;;;;;;467139;253;29447;-71
2023/09/28 06:19:52;;;;;;;5.20;3.60;;;14.90;99.90;;;;;;467149;253;28959;-70
2023/09/28 06:21:54;;;;;;;4.67;3.80;;;14.90;99.90;;;;;;467156;253;29423;-71
2023/09/28 06:23:54;;;;;;;4.80;3.50;;;14.90;99.90;;;;;;467073;253;29381;-70
2023/09/28 06:25:56;;;;;;;3.30;2.93;;;14.90;99.90;;;;;;467137;254;28783;-70
2023/09/28 06:27:57;;;;;;;3.60;3.30;;;15.00;99.90;;;;;;467151;253;28966;-71
2023/09/28 06:29:58;;;;;;;4.80;3.50;;;15.10;99.90;;;;;;467131;253;28841;-71
2023/09/28 06:32:00;;;;;;;4.10;3.70;;;15.10;99.90;;;;;;467132;253;28849;-71
2023/09/28 06:34:01;;;;;;;4.47;3.60;;;15.10;99.90;;;;;;467155;253;29425;-71
2023/09/28 06:36:02;;;;;;;5.13;3.43;;;15.10;99.90;;;;;;467069;253;29362;-70
2023/09/28 06:38:04;;;;;;;4.70;3.90;;;15.10;99.90;;;;;;467121;254;29476;-71
2023/09/28 06:40:05;;;;;;;4.40;3.40;;;15.10;99.90;;;;;;467158;253;29529;-72
2023/09/28 06:42:06;;;;;;;4.23;3.30;;;15.20;99.90;;;;;;467152;253;28972;-71
2023/09/28 06:44:11;;;;;;;4.33;3.73;;;15.20;99.90;;;;;;467121;253;28853;-71
2023/09/28 06:46:09;;;;;;;4.47;3.67;;;15.30;99.90;;;;;;466767;254;28844;-70
2023/09/28 06:48:10;;;;;;;5.27;3.40;;;15.30;99.90;;;;;;467133;253;28933;-70
2023/09/28 06:50:11;;;;;;;4.40;3.27;;;15.30;99.90;;;;;;467161;253;29067;-72
2023/09/28 06:52:12;;;;;;;4.30;3.47;;;15.30;99.90;;;;;;467153;253;28924;-71
2023/09/28 06:54:14;;;;;;;4.23;3.50;;;15.30;99.90;;;;;;467126;254;28865;-71
2023/09/28 06:56:16;;;;;;;4.20;3.80;;;15.30;99.90;;;;;;467104;253;28883;-70
2023/09/28 06:58:17;;;;;;;4.90;3.47;;;15.40;99.90;;;;;;467105;253;29348;-71
2023/09/28 07:00:17;;;;;;;4.90;4.20;;;15.40;99.90;;;;;;467057;253;29475;-72
2023/09/28 07:02:19;;;;;;;3.53;3.23;;;15.50;99.90;;;;;;467056;253;29284;-70
2023/09/28 07:04:20;;;;;;;4.60;3.50;;;15.50;99.90;;;;;;467062;254;29350;-70
2023/09/28 07:06:27;;;;;;;3.60;3.20;;;15.50;99.90;;;;;;467114;254;28877;-71
2023/09/28 07:08:25;;;;;;;3.90;3.43;;;15.50;99.90;;;;;;466761;254;28853;-71
2023/09/28 07:10:26;;;;;;;4.30;3.60;;;15.50;99.90;;;;;;467132;253;29196;-70
2023/09/28 07:12:27;;;;;;;7.57;3.40;;;15.50;99.90;;;;;;467121;254;28948;-72
2023/09/28 07:14:29;;;;;;;4.50;3.30;;;15.50;99.90;;;;;;467108;253;28813;-71
2023/09/28 07:16:30;;;;;;;3.10;2.90;;;15.50;99.90;;;;;;467156;253;28977;-71
2023/09/28 07:18:31;;;;;;;4.50;3.60;;;15.50;99.90;;;;;;467128;254;28840;-73
2023/09/28 07:20:32;;;;;;;4.83;3.40;;;15.60;99.90;;;;;;467181;253;28918;-70
2023/09/28 07:22:34;;;;;;;4.30;3.30;;;15.60;99.90;;;;;;467149;253;28868;-71
2023/09/28 07:24:36;;;;;;;4.40;3.70;;;15.70;99.90;;;;;;467143;253;29274;-71
2023/09/28 07:26:36;;;;;;;3.83;3.30;;;15.80;99.90;;;;;;467081;253;29812;-71
2023/09/28 07:28:38;;;;;;;6.83;3.30;;;15.90;99.90;;;;;;467126;253;29343;-72
2023/09/28 07:30:39;;;;;;;5.77;3.80;;;15.80;99.90;;;;;;467141;253;28869;-71
2023/09/28 07:32:40;;;;;;;3.57;3.27;;;15.80;99.90;;;;;;467138;253;28929;-71
2023/09/28 07:34:42;;;;;;;4.23;3.47;;;15.80;99.90;;;;;;467118;253;28829;-71
2023/09/28 07:36:43;;;;;;;4.53;3.57;;;15.80;99.90;;;;;;467141;254;28952;-71
2023/09/28 07:38:47;;;;;;;4.73;3.40;;;15.80;99.90;;;;;;467103;254;28965;-73
2023/09/28 07:40:45;;;;;;;3.57;3.10;;;15.80;99.90;;;;;;467096;253;28939;-71
2023/09/28 07:42:46;;;;;;;3.47;3.17;;;15.90;99.90;;;;;;467161;254;29341;-71
2023/09/28 07:44:47;;;;;;;3.60;3.30;;;16.00;99.90;;;;;;467186;253;28940;-71
2023/09/28 07:46:49;;;;;;;5.63;3.73;;;16.00;99.90;;;;;;467172;253;28967;-71
2023/09/28 07:48:50;;;;;;;4.00;3.40;;;16.00;99.90;;;;;;467147;253;29565;-72
2023/09/28 07:50:51;;;;;;;5.10;3.90;;;16.00;99.90;;;;;;467128;253;29449;-70
2023/09/28 07:52:52;;;;;;;5.00;3.90;;;16.10;99.90;;;;;;467177;253;29427;-72
2023/09/28 07:54:54;;;;;;;4.20;3.10;;;16.20;99.90;;;;;;467218;253;29683;-71
2023/09/28 07:56:55;;;;;;;3.90;3.47;;;16.20;99.90;;;;;;467145;254;29053;-71
2023/09/28 07:58:57;;;;;;;5.17;3.30;;;16.20;99.90;;;;;;467161;253;29378;-72
2023/09/28 08:00:57;;;;;;;8.90;3.70;;;16.20;99.90;;;;;;467144;253;28916;-71
2023/09/28 08:02:59;;;;;;;3.50;3.20;;;16.40;99.90;;;;;;467130;253;28973;-71
2023/09/28 08:05:01;;;;;;;4.80;3.73;;;16.40;99.90;;;;;;467164;254;29040;-73
2023/09/28 08:07:01;;;;;;;4.23;3.53;;;16.50;99.90;;;;;;467137;254;29456;-70
2023/09/28 08:09:03;;;;;;;4.60;3.43;;;16.50;99.90;;;;;;467183;253;28980;-70
2023/09/28 08:11:04;;;;;;;4.13;3.37;;;16.50;99.90;;;;;;467179;253;29020;-71
2023/09/28 08:13:06;;;;;;;3.50;3.20;;;16.60;99.90;;;;;;467169;253;28936;-71
2023/09/28 08:15:06;;;;;;;4.20;3.13;;;16.60;99.90;;;;;;467186;253;29329;-71
2023/09/28 08:17:09;;;;;;;4.40;3.53;;;16.70;99.90;;;;;;467182;253;29008;-71
2023/09/28 08:19:09;;;;;;;4.90;3.30;;;16.70;99.90;;;;;;467094;253;28888;-71
2023/09/28 08:21:10;;;;;;;4.07;3.77;;;16.70;99.90;;;;;;467200;253;28966;-73
2023/09/28 08:23:11;;;;;;;4.63;3.70;;;16.70;99.90;;;;;;467195;254;28956;-71
2023/09/28 08:25:14;;;;;;;4.30;3.90;;;16.90;99.90;;;;;;467198;253;29498;-72
2023/09/28 08:27:14;;;;;;;4.43;3.63;;;16.90;99.90;;;;;;467144;253;29399;-71
2023/09/28 08:29:15;;;;;;;3.97;3.57;;;16.90;99.90;;;;;;467201;253;29455;-71
2023/09/28 08:31:16;;;;;;;3.70;3.30;;;17.00;99.90;;;;;;467230;253;29457;-72
2023/09/28 08:33:18;;;;;;;4.50;3.60;;;17.00;99.90;;;;;;467208;253;28955;-71
2023/09/28 08:35:20;;;;;;;3.73;3.33;;;17.10;99.90;;;;;;467182;253;29036;-71
2023/09/28 08:37:20;;;;;;;6.90;3.67;;;17.10;99.90;;;;;;467153;254;28932;-71
2023/09/28 08:39:21;;;;;;;6.70;3.03;;;17.20;99.90;;;;;;467211;253;28982;-71
2023/09/28 08:41:23;;;;;;;4.67;3.93;;;17.20;99.90;;;;;;467212;253;28955;-74
2023/09/28 08:43:24;;;;;;;7.63;3.63;;;17.20;99.90;;;;;;467203;253;29004;-71
2023/09/28 08:45:25;;;;;;;3.77;3.20;;;17.30;99.90;;;;;;467195;254;29356;-71
2023/09/28 08:47:26;;;;;;;3.40;3.10;;;17.40;99.90;;;;;;467193;253;29212;-70
2023/09/28 08:49:29;;;;;;;9.13;3.83;;;17.40;99.90;;;;;;467224;253;28817;-71
2023/09/28 08:51:29;;;;;;;5.03;3.50;;;17.40;99.90;;;;;;467123;254;29448;-71
2023/09/28 08:53:30;;;;;;;5.57;3.50;;;17.60;99.90;;;;;;467146;253;29296;-73
2023/09/28 08:55:31;;;;;;;3.90;3.20;;;17.60;99.90;;;;;;467142;253;29514;-73
2023/09/28 08:57:33;;;;;;;7.30;3.70;;;17.60;99.90;;;;;;467155;254;28872;-72
2023/09/28 08:59:35;;;;;;;5.13;3.57;;;17.60;99.90;;;;;;467180;253;28831;-70
2023/09/28 09:01:35;;;;;;;4.30;3.57;;;17.60;99.90;;;;;;467135;254;28872;-71
2023/09/28 09:03:36;;;;;;;4.83;3.70;;;17.70;99.90;;;;;;467165;253;28961;-71
2023/09/28 09:05:38;;;;;;;3.70;3.30;;;17.80;99.90;;;;;;467122;253;28856;-73
2023/09/28 09:07:39;;;;;;;4.50;3.93;;;17.70;99.90;;;;;;467145;253;28922;-75
2023/09/28 09:09:41;;;;;;;6.73;3.60;;;17.80;99.90;;;;;;467158;253;28960;-71
2023/09/28 09:11:41;;;;;;;4.50;3.20;;;17.80;99.90;;;;;;467126;253;28863;-71
2023/09/28 09:13:43;;;;;;;7.80;3.70;;;17.80;99.90;;;;;;467130;253;28825;-72
2023/09/28 09:15:44;;;;;;;3.87;3.00;;;17.90;99.90;;;;;;467149;254;29474;-71
2023/09/28 09:17:45;;;;;;;3.33;3.03;;;17.90;99.90;;;;;;467176;254;29541;-74
2023/09/28 09:19:46;;;;;;;4.10;3.40;;;17.90;99.90;;;;;;467112;249;29858;-73
2023/09/28 09:21:49;;;;;;;4.13;3.17;;;18.00;99.90;;;;;;467138;253;28869;-72
2023/09/28 09:23:51;;;;;;;6.50;3.87;;;18.00;99.90;;;;;;467073;254;28879;-71
2023/09/28 09:25:56;;;;;;;3.90;3.40;;;18.10;99.90;;;;;;467050;254;29048;-72
2023/09/28 09:27:58;;;;;;;5.70;3.30;;;18.10;99.90;;;;;;467146;253;28945;-72
2023/09/28 09:29:58;;;;;;;3.13;2.83;;;18.20;99.90;;;;;;467126;254;29319;-71
2023/09/28 09:32:00;;;;;;;5.60;3.30;;;18.30;99.90;;;;;;467150;253;29567;-73
2023/09/28 09:34:01;;;;;;;4.70;3.20;;;18.40;99.90;;;;;;467133;253;30284;-73
2023/09/28 09:36:02;;;;;;;4.13;2.90;;;18.50;99.90;;;;;;467102;253;29432;-72
2023/09/28 09:38:03;;;;;;;4.40;3.43;;;18.50;99.90;;;;;;467133;253;28960;-73
2023/09/28 09:40:05;;;;;;;4.23;3.03;;;18.70;99.90;;;;;;467149;253;28933;-72
2023/09/28 09:42:06;;;;;;;3.83;2.73;;;18.80;99.90;;;;;;467131;254;29047;-72
2023/09/28 09:44:07;;;;;;;3.77;3.00;;;18.80;99.90;;;;;;467148;253;28928;-73
2023/09/28 09:46:09;;;;;;;3.93;2.60;;;18.80;99.90;;;;;;467140;254;28925;-73
2023/09/28 09:48:10;;;;;;;4.40;3.03;;;18.80;99.90;;;;;;467126;253;28956;-73
2023/09/28 09:50:11;;;;;;;3.03;2.77;;;19.00;99.90;;;;;;467129;253;28924;-73
2023/09/28 09:52:12;;;;;;;3.40;2.80;;;19.00;99.90;;;;;;467129;254;28883;-73
2023/09/28 09:54:13;;;;;;;5.73;2.90;;;19.10;99.90;;;;;;467175;253;29492;-76
2023/09/28 09:56:15;;;;;;;4.43;3.13;;;19.10;99.90;;;;;;467119;254;29389;-71
2023/09/28 09:58:16;;;;;;;3.30;2.87;;;19.10;99.90;;;;;;467109;253;29451;-73
2023/09/28 10:00:18;;;;;;;2.93;2.73;;;19.10;99.90;;;;;;467138;249;29442;-73
2023/09/28 10:02:19;;;;;;;3.37;3.07;;;19.10;99.90;;;;;;467048;253;28848;-73
2023/09/28 10:04:20;;;;;;;2.93;2.60;;;19.10;99.90;;;;;;467107;253;28872;-75
2023/09/28 10:06:21;;;;;;;4.10;3.70;;;19.00;99.90;;;;;;467106;253;28843;-73
2023/09/28 10:08:22;;;;;;;3.83;3.30;;;19.10;99.90;;;;;;467119;254;28889;-73
2023/09/28 10:10:27;;;;;;;3.00;2.70;;;19.10;99.90;;;;;;467139;253;28831;-73
2023/09/28 10:12:25;;;;;;;3.13;2.80;;;19.20;99.90;;;;;;466976;250;28836;-72
2023/09/28 10:14:26;;;;;;;6.00;3.10;;;19.30;99.90;;;;;;467146;253;29000;-73
2023/09/28 10:16:27;;;;;;;5.93;3.10;;;19.40;99.90;;;;;;467122;253;28881;-73
2023/09/28 10:18:29;;;;;;;3.30;3.00;;;19.40;99.90;;;;;;467116;253;28868;-73
2023/09/28 10:20:30;;;;;;;4.67;3.13;;;19.40;99.90;;;;;;467156;253;29408;-73
2023/09/28 10:22:31;;;;;;;2.83;2.50;;;19.40;99.90;;;;;;467123;253;29286;-73
2023/09/28 10:24:34;;;;;;;4.67;3.00;;;19.40;99.90;;;;;;467138;253;29327;-74
2023/09/28 10:26:35;;;;;;;4.53;3.60;;;19.50;99.90;;;;;;467016;254;28837;-73
2023/09/28 10:28:35;;;;;;;3.63;3.00;;;19.70;99.90;;;;;;467072;254;28872;-73
2023/09/28 10:30:36;;;;;;;3.40;3.00;;;19.80;99.90;;;;;;467156;253;28867;-73
2023/09/28 10:32:40;;;;;;;7.70;3.80;;;19.70;99.90;;;;;;467126;253;28979;-74
2023/09/28 10:34:43;;;;;;;4.73;3.30;;;19.70;99.90;;;;;;467001;254;28873;-73